Time;durP1;ratioP1;P1;durP2;ratioP2;P2;SDS_P1;SDS_P2;PMS_P1;PMS_P2;Temp;Humidity;BMP_temperature;BMP_pressure;BME280_temperature;BME280_humidity;BME280_pressure;Samples;Min_cycle;Max_cycle;Signal;HPM_P1;HPM_P2
2022/12/28 00:09:34;;;;;;;0.77;0.77;;;;;;;2.80;58.83;101828.12;18403791;32;20124;-61
2022/12/28 00:19:37;;;;;;;2.65;2.45;;;;;;;2.52;59.49;101821.50;18421188;32;20112;-60
2022/12/28 00:29:41;;;;;;;0.70;0.70;;;;;;;2.42;58.87;101824.38;18420061;32;20120;-60
2022/12/28 00:39:44;;;;;;;0.80;0.80;;;;;;;2.23;60.09;101823.37;18420284;32;20107;-60
2022/12/28 00:49:49;;;;;;;1.08;1.00;;;;;;;2.12;61.07;101835.66;18419584;31;20089;-60
2022/12/28 00:59:52;;;;;;;1.65;1.55;;;;;;;2.03;61.75;101841.19;18419400;32;20116;-60
2022/12/28 01:09:57;;;;;;;4.22;3.62;;;;;;;2.21;61.45;101849.06;18418832;32;20080;-60
2022/12/28 01:20:00;;;;;;;0.70;0.70;;;;;;;1.92;62.30;101847.44;18418026;32;20101;-60
2022/12/28 01:30:06;;;;;;;0.70;0.70;;;;;;;2.03;61.36;101848.94;18417728;32;20115;-60
2022/12/28 01:40:10;;;;;;;0.85;0.85;;;;;;;1.83;61.53;101852.06;18418816;32;20104;-60
2022/12/28 01:50:17;;;;;;;0.70;0.70;;;;;;;1.93;60.29;101857.81;18426747;31;20109;-60
2022/12/28 02:00:20;;;;;;;1.50;1.45;;;;;;;1.82;60.45;101846.00;18426538;32;20115;-60
2022/12/28 02:10:26;;;;;;;0.88;0.88;;;;;;;1.50;61.59;101838.22;18425911;32;20183;-60
2022/12/28 02:21:03;;;;;;;1.55;1.55;;;;;;;1.65;61.39;101832.19;18426008;32;20165;-60
2022/12/28 02:31:10;;;;;;;1.05;1.05;;;;;;;1.57;60.93;101836.91;18425581;32;20148;-60
2022/12/28 02:41:19;;;;;;;0.90;0.90;;;;;;;1.33;62.07;101837.22;18425322;32;20178;-60
2022/12/28 02:51:54;;;;;;;0.60;0.60;;;;;;;1.25;62.35;101838.47;18423544;31;20182;-60
2022/12/28 03:02:11;;;;;;;0.70;0.70;;;;;;;0.93;63.32;101842.56;18424430;32;20109;-60
2022/12/28 03:12:19;;;;;;;0.80;0.80;;;;;;;1.32;61.54;101831.97;18423767;32;20496;-60
2022/12/28 03:32:46;;;;;;;0.70;0.70;;;;;;;1.29;61.91;101836.97;18422950;32;20444;-60
2022/12/28 03:53:13;;;;;;;0.70;0.70;;;;;;;1.20;61.90;101802.16;18422442;31;20097;-60
2022/12/28 04:03:16;;;;;;;3.53;3.30;;;;;;;0.96;62.55;101787.09;18421244;32;20393;-60
2022/12/28 04:13:21;;;;;;;0.62;0.62;;;;;;;1.05;61.84;101785.84;18421233;32;20437;-60
2022/12/28 04:23:25;;;;;;;1.00;1.00;;;;;;;0.71;62.89;101782.13;18420847;32;20115;-60
2022/12/28 04:33:32;;;;;;;0.60;0.60;;;;;;;0.62;63.30;101785.03;18420629;32;20492;-60
2022/12/28 04:43:35;;;;;;;1.10;1.10;;;;;;;0.84;62.54;101760.62;18420314;32;20089;-60
2022/12/28 04:53:40;;;;;;;0.83;0.77;;;;;;;0.68;62.62;101769.09;18419774;32;20127;-60
2022/12/28 05:03:45;;;;;;;5.07;4.80;;;;;;;0.81;62.12;101755.31;18419269;32;20369;-60
2022/12/28 05:13:58;;;;;;;0.70;0.70;;;;;;;0.65;62.08;101758.66;18420027;32;20105;-60
2022/12/28 05:24:01;;;;;;;0.90;0.90;;;;;;;0.46;61.95;101772.94;18428188;32;20145;-60
2022/12/28 05:34:05;;;;;;;1.37;1.30;;;;;;;0.47;61.84;101764.44;18427441;32;20120;-60
2022/12/28 05:44:08;;;;;;;0.73;0.73;;;;;;;0.59;61.25;101774.59;18427538;32;20109;-60
2022/12/28 05:54:13;;;;;;;0.90;0.90;;;;;;;0.25;61.18;101772.50;18426779;32;20097;-60
2022/12/28 06:04:18;;;;;;;0.70;0.70;;;;;;;0.33;60.38;101785.81;18399884;32;20174;-60
2022/12/28 06:14:22;;;;;;;0.70;0.70;;;;;;;0.09;61.16;101792.06;18373705;32;20919;-60
2022/12/28 06:24:25;;;;;;;0.60;0.60;;;;;;;-0.17;61.58;101783.63;18377230;32;20096;-60
2022/12/28 06:34:30;;;;;;;0.70;0.70;;;;;;;-0.21;60.79;101776.50;18417473;32;20424;-59
2022/12/28 06:44:33;;;;;;;13.73;12.70;;;;;;;-0.36;61.97;101786.69;18424841;32;20463;-59
2022/12/28 06:54:45;;;;;;;;;;;;;;;-0.26;62.61;101783.03;18424677;32;20148;-59
2022/12/28 07:04:48;;;;;;;0.83;0.83;;;;;;;0.05;63.63;101808.09;18424214;32;19976;-59
2022/12/28 07:14:53;;;;;;;0.70;0.70;;;;;;;0.25;64.24;101804.22;18423313;32;20103;-59
2022/12/28 07:24:56;;;;;;;3.30;3.15;;;;;;;0.99;63.69;101790.63;18423459;32;20115;-59
2022/12/28 07:35:00;;;;;;;2.08;1.95;;;;;;;2.03;61.63;101799.06;18423985;32;20185;-59
2022/12/28 07:45:04;;;;;;;0.70;0.70;;;;;;;2.76;59.51;101784.94;18421897;32;20101;-59
2022/12/28 07:55:09;;;;;;;0.77;0.77;;;;;;;3.26;58.84;101796.03;18409882;32;20088;-59
2022/12/28 08:05:12;;;;;;;0.95;0.95;;;;;;;3.21;58.81;101801.78;18395935;32;20145;-59
2022/12/28 08:15:16;;;;;;;0.68;0.68;;;;;;;3.11;60.07;101810.78;18357138;32;20142;-58
2022/12/28 08:25:20;;;;;;;4.55;1.95;;;;;;;3.14;60.68;101798.03;18362775;32;20108;-58
2022/12/28 08:35:25;;;;;;;0.70;0.70;;;;;;;3.39;61.00;101794.09;18393828;32;20133;-58
2022/12/28 08:45:28;;;;;;;0.60;0.60;;;;;;;3.57;61.23;101783.78;18378547;31;20121;-58
2022/12/28 08:55:34;;;;;;;0.70;0.70;;;;;;;3.89;61.79;101777.59;18383467;32;20185;-58
2022/12/28 09:05:38;;;;;;;0.60;0.60;;;;;;;4.37;60.63;101776.31;18369848;32;20120;-58
2022/12/28 09:15:43;;;;;;;0.82;0.82;;;;;;;4.68;59.40;101782.84;18353425;32;20089;-58
2022/12/28 09:25:47;;;;;;;0.60;0.60;;;;;;;5.05;59.17;101762.88;18352804;32;20112;-58
2022/12/28 09:35:51;;;;;;;0.70;0.70;;;;;;;5.56;58.26;101751.13;18375552;32;20130;-58
2022/12/28 09:45:55;;;;;;;1.33;1.25;;;;;;;5.76;57.66;101738.09;18398798;32;20141;-58
2022/12/28 09:56:05;;;;;;;0.60;0.60;;;;;;;6.10;56.76;101729.06;18408215;32;20122;-58
2022/12/28 10:06:11;;;;;;;0.60;0.60;;;;;;;5.97;56.50;101710.44;18406291;32;20130;-58
2022/12/28 10:16:18;;;;;;;1.40;1.37;;;;;;;6.30;55.98;101685.69;18385231;32;20093;-59
2022/12/28 10:26:24;;;;;;;1.45;1.45;;;;;;;6.64;54.86;101673.94;18425006;32;20107;-58
2022/12/28 10:36:34;;;;;;;1.85;1.35;;;;;;;7.31;53.53;101665.72;18425201;32;20092;-58
2022/12/28 10:46:38;;;;;;;0.80;0.80;;;;;;;7.50;52.29;101656.78;18396187;32;20137;-58
2022/12/28 10:56:49;;;;;;;1.55;1.45;;;;;;;7.54;53.00;101662.97;18378365;32;20093;-58
2022/12/28 11:06:53;;;;;;;0.70;0.70;;;;;;;7.66;53.14;101651.16;18403747;32;20086;-59
2022/12/28 11:16:57;;;;;;;0.73;0.73;;;;;;;7.93;52.82;101658.91;18357617;32;20097;-58
2022/12/28 11:27:01;;;;;;;1.55;1.45;;;;;;;8.01;51.58;101639.19;18399949;32;20165;-59
2022/12/28 11:37:12;;;;;;;1.95;0.68;;;;;;;8.19;51.54;101636.22;18372660;31;130917;-58
2022/12/28 11:47:29;;;;;;;0.60;0.60;;;;;;;8.48;49.59;101606.63;18356786;32;20086;-58
2022/12/28 11:57:35;;;;;;;2.00;1.17;;;;;;;8.64;49.10;101574.09;18365437;32;20143;-58
2022/12/28 12:07:47;;;;;;;1.75;0.80;;;;;;;9.15;47.35;101557.06;18417526;32;20145;-59
2022/12/28 12:17:55;;;;;;;0.90;0.90;;;;;;;9.35;45.64;101535.78;18391075;32;20437;-60
2022/12/28 12:28:01;;;;;;;0.80;0.80;;;;;;;9.35;44.52;101537.47;18354877;32;20173;-60
2022/12/28 12:38:12;;;;;;;0.77;0.70;;;;;;;9.22;44.86;101532.03;18402798;31;20652;-59
2022/12/28 12:48:29;;;;;;;0.65;0.65;;;;;;;9.34;44.92;101504.47;18401399;32;20119;-59
2022/12/28 12:58:42;;;;;;;0.60;0.60;;;;;;;9.42;44.55;101497.69;18374379;32;20098;-58
2022/12/28 13:08:48;;;;;;;0.65;0.65;;;;;;;9.22;44.38;101492.94;18385625;32;20093;-59
2022/12/28 13:18:57;;;;;;;0.50;0.50;;;;;;;9.40;43.86;101475.94;18415351;32;20165;-59
2022/12/28 13:29:03;;;;;;;0.50;0.50;;;;;;;9.30;45.00;101474.84;18379106;32;20144;-59
2022/12/28 13:39:11;;;;;;;0.50;0.50;;;;;;;9.60;44.68;101454.56;18413184;31;20096;-59
2022/12/28 13:49:15;;;;;;;1.02;0.98;;;;;;;9.27;44.28;101452.19;18421414;32;20081;-59
2022/12/28 13:59:20;;;;;;;0.80;0.80;;;;;;;9.08;44.15;101421.41;18391586;32;20085;-60
2022/12/28 14:09:23;;;;;;;0.77;0.77;;;;;;;9.03;44.95;101426.53;18384264;32;20115;-59
2022/12/28 14:19:28;;;;;;;0.52;0.52;;;;;;;9.07;45.03;101433.59;18386767;32;20136;-59
2022/12/28 14:29:33;;;;;;;1.02;0.95;;;;;;;9.24;44.98;101410.47;18388380;32;20408;-59
2022/12/28 14:39:43;;;;;;;0.60;0.60;;;;;;;9.14;45.28;101398.97;18359013;32;20108;-59
2022/12/28 14:49:46;;;;;;;0.50;0.50;;;;;;;8.76;46.56;101401.66;18408450;31;20126;-59
2022/12/28 14:59:55;;;;;;;0.60;0.60;;;;;;;8.62;46.80;101411.78;18410617;32;20101;-61
2022/12/28 15:09:59;;;;;;;0.50;0.50;;;;;;;8.38;47.86;101438.09;18396533;32;20107;-58
2022/12/28 15:20:04;;;;;;;0.70;0.70;;;;;;;8.17;48.22;101429.81;18373124;32;20506;-59
2022/12/28 15:30:09;;;;;;;0.60;0.60;;;;;;;7.66;50.20;101425.94;18415806;32;20436;-57
2022/12/28 15:40:23;;;;;;;1.00;1.00;;;;;;;7.72;49.01;101414.81;18380320;32;20094;-57
2022/12/28 15:50:26;;;;;;;0.40;0.40;;;;;;;7.78;48.95;101428.00;18353955;32;20101;-57
2022/12/28 16:00:31;;;;;;;0.70;0.70;;;;;;;7.63;49.26;101418.06;18385576;32;20109;-58
2022/12/28 16:10:34;;;;;;;0.90;0.90;;;;;;;7.12;50.50;101424.47;18355486;32;20449;-58
2022/12/28 16:20:39;;;;;;;0.52;0.52;;;;;;;7.02;51.01;101415.53;18385754;32;20097;-57
2022/12/28 16:30:48;;;;;;;0.68;0.68;;;;;;;6.64;52.72;101419.63;18370320;32;20085;-57
2022/12/28 16:40:52;;;;;;;0.65;0.65;;;;;;;6.32;53.01;101411.75;18385501;32;20093;-57
2022/12/28 16:50:58;;;;;;;0.60;0.60;;;;;;;6.06;55.09;101421.25;18363194;31;20152;-58
2022/12/28 17:01:07;;;;;;;0.80;0.80;;;;;;;5.96;54.05;101415.72;18415501;32;20105;-57
2022/12/28 17:11:12;;;;;;;0.88;0.88;;;;;;;5.69;55.56;101403.66;18401304;32;20112;-57
2022/12/28 17:21:16;;;;;;;0.60;0.60;;;;;;;5.63;54.74;101407.72;18408267;32;20093;-57
2022/12/28 17:31:22;;;;;;;0.65;0.65;;;;;;;5.11;55.63;101399.87;18359380;32;20097;-57
2022/12/28 17:41:27;;;;;;;0.80;0.80;;;;;;;4.88;56.75;101401.62;18360557;32;20101;-57
2022/12/28 17:51:30;;;;;;;0.82;0.82;;;;;;;4.68;56.32;101383.63;18345946;32;20462;-57
2022/12/28 18:01:35;;;;;;;1.08;0.98;;;;;;;4.41;57.17;101384.34;18358118;32;20098;-57
2022/12/28 18:11:38;;;;;;;0.98;0.98;;;;;;;4.03;57.80;101372.53;18357071;32;20096;-56
2022/12/28 18:21:43;;;;;;;0.70;0.70;;;;;;;3.97;58.16;101374.88;18354939;32;20107;-57
2022/12/28 18:31:46;;;;;;;3.90;3.70;;;;;;;3.73;58.58;101377.31;18367805;32;20362;-56
2022/12/28 18:41:51;;;;;;;0.70;0.70;;;;;;;3.78;58.73;101364.59;18357120;32;20182;-56
2022/12/28 18:51:54;;;;;;;4.47;2.05;;;;;;;3.43;59.39;101358.03;18360156;31;20097;-56
2022/12/28 19:01:59;;;;;;;1.75;1.58;;;;;;;3.32;59.90;101369.63;18383843;32;20104;-58
2022/12/28 19:12:15;;;;;;;1.48;1.37;;;;;;;3.14;60.56;101374.84;18391646;32;20101;-57
2022/12/28 19:22:19;;;;;;;0.75;0.75;;;;;;;3.07;60.86;101391.75;18396022;32;20094;-57
2022/12/28 19:32:23;;;;;;;0.70;0.70;;;;;;;3.02;60.74;101383.81;18372158;32;20097;-57
2022/12/28 19:42:27;;;;;;;1.37;1.08;;;;;;;2.94;60.40;101382.56;18375926;32;20123;-57
2022/12/28 19:52:32;;;;;;;1.62;1.52;;;;;;;2.86;60.81;101371.03;18359710;32;20389;-57
2022/12/28 20:02:37;;;;;;;0.95;0.95;;;;;;;2.71;61.05;101378.97;18377768;32;20105;-56
2022/12/28 20:12:41;;;;;;;0.82;0.82;;;;;;;2.80;60.36;101353.59;18420364;32;20111;-57
2022/12/28 20:22:45;;;;;;;2.47;2.37;;;;;;;2.56;61.75;101350.78;18392687;32;20444;-57
2022/12/28 20:32:49;;;;;;;0.70;0.70;;;;;;;2.66;61.26;101352.97;18401724;32;20085;-57
2022/12/28 20:53:14;;;;;;;2.83;2.72;;;;;;;2.34;62.52;101327.47;18417576;31;20101;-56
2022/12/28 21:03:19;;;;;;;0.50;0.50;;;;;;;2.50;61.95;101339.34;18418437;32;20408;-56
2022/12/28 21:13:22;;;;;;;3.50;2.53;;;;;;;2.71;61.30;101348.91;18416394;32;20133;-57
2022/12/28 21:23:27;;;;;;;1.00;1.00;;;;;;;2.31;62.35;101347.94;18416233;32;20108;-56
2022/12/28 21:33:31;;;;;;;0.77;0.77;;;;;;;2.49;61.84;101344.47;18382852;32;20106;-57
2022/12/28 21:43:36;;;;;;;0.57;0.57;;;;;;;2.38;62.10;101337.94;18382514;32;20089;-57
2022/12/28 21:53:39;;;;;;;0.68;0.68;;;;;;;2.46;61.33;101334.00;18383519;32;20113;-57
2022/12/28 22:14:07;;;;;;;0.85;0.85;;;;;;;2.13;61.92;101308.44;18254989;32;20166;-57
2022/12/28 22:24:11;;;;;;;0.80;0.80;;;;;;;2.14;61.51;101307.63;18252870;32;20110;-57
2022/12/28 22:34:15;;;;;;;1.12;1.12;;;;;;;2.05;61.85;101297.78;18255793;32;20114;-57
2022/12/28 22:44:19;;;;;;;0.93;0.93;;;;;;;1.97;61.47;101284.53;18287531;32;20377;-56
2022/12/28 22:54:22;;;;;;;2.47;2.35;;;;;;;1.76;62.21;101274.97;18389423;32;20145;-57
2022/12/28 23:04:27;;;;;;;0.70;0.70;;;;;;;1.86;61.50;101259.97;18389591;32;20094;-57
2022/12/28 23:35:13;;;;;;;0.80;0.80;;;;;;;1.57;62.42;101226.00;18450535;31;20429;-56
2022/12/28 23:45:18;;;;;;;1.30;1.30;;;;;;;1.58;61.85;101217.47;18423173;32;20112;-56
2022/12/28 23:55:21;;;;;;;0.70;0.70;;;;;;;1.37;62.33;101207.91;18422430;32;20100;-56
